createdAt,value
2022-08-24T00:00:35.120Z,4.40
2022-08-24T00:02:37.147Z,4.60
2022-08-24T00:04:39.184Z,4.88
2022-08-24T00:06:40.946Z,4.50
2022-08-24T00:08:43.488Z,4.70
2022-08-24T00:10:45.841Z,4.53
2022-08-24T00:12:48.444Z,5.28
2022-08-24T00:14:50.712Z,4.88
2022-08-24T00:16:52.661Z,4.20
2022-08-24T00:18:56.075Z,5.43
2022-08-24T00:20:57.910Z,4.47
2022-08-24T00:22:59.671Z,4.90
2022-08-24T00:25:01.629Z,4.80
2022-08-24T00:27:03.867Z,4.77
2022-08-24T00:29:07.700Z,4.63
2022-08-24T00:31:10.414Z,5.28
2022-08-24T00:33:12.195Z,4.95
2022-08-24T00:35:18.264Z,4.55
2022-08-24T00:37:20.050Z,5.32
2022-08-24T00:39:22.112Z,4.85
2022-08-24T00:41:24.548Z,4.65
2022-08-24T00:43:26.667Z,4.47
2022-08-24T00:45:29.544Z,5.47
2022-08-24T00:47:40.957Z,4.55
2022-08-24T00:50:06.152Z,5.32
2022-08-24T00:52:14.256Z,4.57
2022-08-24T00:54:18.583Z,5.40
2022-08-24T00:56:26.767Z,4.78
2022-08-24T00:58:39.063Z,4.60
2022-08-24T01:00:46.587Z,5.25
2022-08-24T01:02:55.833Z,4.75
2022-08-24T01:05:01.819Z,4.70
2022-08-24T01:07:04.382Z,4.80
2022-08-24T01:09:06.775Z,5.00
2022-08-24T01:11:12.619Z,4.80
2022-08-24T01:13:15.438Z,4.95
2022-08-24T01:17:40.555Z,4.82
2022-08-24T01:19:47.696Z,5.18
2022-08-24T01:22:12.952Z,4.70
2022-08-24T01:24:15.404Z,5.32
2022-08-24T01:26:36.272Z,5.38
2022-08-24T01:28:42.268Z,4.97
2022-08-24T01:30:45.378Z,5.38
2022-08-24T01:32:58.936Z,4.97
2022-08-24T01:35:00.859Z,4.53
2022-08-24T01:37:03.272Z,4.80
2022-08-24T01:39:21.637Z,4.63
2022-08-24T01:41:28.264Z,4.97
2022-08-24T01:43:31.025Z,4.63
2022-08-24T01:45:36.323Z,4.57
2022-08-24T01:47:38.084Z,4.60
2022-08-24T01:49:43.580Z,4.22
2022-08-24T01:51:46.363Z,4.53
2022-08-24T01:55:50.303Z,4.97
2022-08-24T01:57:52.056Z,4.90
2022-08-24T01:59:53.927Z,5.10
2022-08-24T02:02:04.318Z,5.00
2022-08-24T02:04:08.712Z,4.40
2022-08-24T02:06:12.288Z,4.75
2022-08-24T02:08:14.439Z,4.32
2022-08-24T02:10:17.167Z,4.60
2022-08-24T02:14:21.938Z,4.53
2022-08-24T02:16:24.181Z,4.75
2022-08-24T02:18:26.027Z,4.35
2022-08-24T02:20:28.531Z,4.50
2022-08-24T02:22:30.332Z,4.63
2022-08-24T02:24:32.825Z,4.65
2022-08-24T02:26:34.692Z,3.97
2022-08-24T02:28:37.894Z,4.97
2022-08-24T02:30:40.873Z,4.93
2022-08-24T02:32:43.375Z,4.32
2022-08-24T02:34:45.164Z,4.55
2022-08-24T02:36:47.007Z,4.53
2022-08-24T02:38:48.766Z,4.40
2022-08-24T02:40:50.620Z,5.18
2022-08-24T02:42:52.844Z,4.70
2022-08-24T02:44:55.272Z,5.03
2022-08-24T02:46:57.439Z,4.80
2022-08-24T02:49:11.080Z,4.75
2022-08-24T02:51:26.327Z,4.40
2022-08-24T02:53:30.922Z,5.15
2022-08-24T02:55:32.714Z,4.90
2022-08-24T02:57:34.555Z,4.40
2022-08-24T02:59:36.366Z,4.75
2022-08-24T03:01:38.270Z,4.72
2022-08-24T03:03:40.989Z,4.90
2022-08-24T03:05:42.968Z,4.90
2022-08-24T03:07:44.866Z,4.65
2022-08-24T03:09:46.644Z,4.77
2022-08-24T03:11:48.434Z,4.85
2022-08-24T03:13:50.536Z,5.57
2022-08-24T03:15:52.534Z,4.68
2022-08-24T03:17:54.365Z,4.88
2022-08-24T03:19:56.117Z,4.45
2022-08-24T03:21:57.925Z,4.43
2022-08-24T03:23:59.738Z,4.88
2022-08-24T03:26:02.008Z,4.78
2022-08-24T03:28:03.879Z,4.90
2022-08-24T03:30:15.124Z,4.60
2022-08-24T03:32:17.851Z,5.30
2022-08-24T03:36:22.755Z,4.90
2022-08-24T03:38:25.240Z,5.03
2022-08-24T03:40:27.158Z,4.70
2022-08-24T03:42:29.046Z,4.53
2022-08-24T03:44:30.863Z,4.65
2022-08-24T03:46:36.754Z,4.93
2022-08-24T03:48:40.236Z,4.30
2022-08-24T03:50:46.178Z,4.90
2022-08-24T03:52:49.070Z,4.65
2022-08-24T03:54:50.874Z,5.10
2022-08-24T03:56:52.678Z,5.32
2022-08-24T03:58:55.179Z,4.70
2022-08-24T04:00:58.379Z,5.00
2022-08-24T04:03:00.272Z,4.63
2022-08-24T04:05:02.069Z,4.82
2022-08-24T04:07:04.425Z,4.72
2022-08-24T04:09:07.679Z,5.13
2022-08-24T04:11:16.753Z,5.22
2022-08-24T04:13:19.160Z,4.55
2022-08-24T04:15:21.110Z,5.00
2022-08-24T04:17:23.032Z,4.93
2022-08-24T04:19:25.029Z,4.63
2022-08-24T04:21:35.373Z,5.00
2022-08-24T04:23:47.044Z,5.40
2022-08-24T04:25:49.624Z,5.47
2022-08-24T04:27:51.421Z,5.55
2022-08-24T04:29:53.213Z,5.63
2022-08-24T04:31:55.111Z,4.93
2022-08-24T04:33:57.467Z,4.83
2022-08-24T04:35:59.342Z,4.95
2022-08-24T04:38:01.234Z,4.63
2022-08-24T04:40:04.504Z,4.97
2022-08-24T04:42:06.643Z,5.30
2022-08-24T04:44:08.455Z,5.22
2022-08-24T04:46:10.270Z,5.00
2022-08-24T04:48:13.458Z,5.27
2022-08-24T04:50:15.225Z,4.50
2022-08-24T04:52:18.208Z,5.40
2022-08-24T04:54:20.066Z,5.13
2022-08-24T04:56:24.035Z,5.53
2022-08-24T04:58:27.488Z,5.20
2022-08-24T05:00:29.273Z,5.00
2022-08-24T05:02:32.994Z,5.15
2022-08-24T05:04:38.023Z,5.05
2022-08-24T05:06:41.351Z,4.75
2022-08-24T05:08:43.938Z,4.53
2022-08-24T05:10:48.816Z,4.93
2022-08-24T05:12:50.722Z,4.65
2022-08-24T05:14:52.693Z,5.07
2022-08-24T05:16:54.595Z,4.63
2022-08-24T05:18:56.652Z,5.60
2022-08-24T05:20:58.653Z,4.70
2022-08-24T05:23:03.877Z,4.75
2022-08-24T05:25:06.625Z,5.10
2022-08-24T05:27:08.821Z,4.47
2022-08-24T05:29:10.861Z,4.45
2022-08-24T05:31:21.912Z,4.60
2022-08-24T05:33:23.756Z,4.60
2022-08-24T05:35:25.700Z,4.22
2022-08-24T05:37:27.480Z,4.20
2022-08-24T05:39:31.104Z,5.13
2022-08-24T05:41:32.983Z,4.90
2022-08-24T05:43:34.815Z,4.60
2022-08-24T05:45:36.588Z,4.28
2022-08-24T05:47:39.068Z,4.30
2022-08-24T05:49:41.734Z,4.43
2022-08-24T05:53:45.526Z,4.70
2022-08-24T05:55:47.309Z,4.60
2022-08-24T05:57:50.421Z,4.15
2022-08-24T05:59:52.887Z,4.40
2022-08-24T06:01:54.721Z,4.63
2022-08-24T06:03:57.845Z,4.47
2022-08-24T06:06:01.905Z,4.93
2022-08-24T06:08:03.933Z,4.28
2022-08-24T06:10:26.287Z,4.30
2022-08-24T06:12:27.891Z,4.30
2022-08-24T06:14:29.683Z,4.72
2022-08-24T06:16:34.020Z,4.65
2022-08-24T06:18:36.329Z,3.83
2022-08-24T06:20:41.512Z,4.10
2022-08-24T06:22:44.437Z,4.03
2022-08-24T06:25:04.902Z,4.25
2022-08-24T06:27:22.381Z,3.97
2022-08-24T06:29:24.352Z,3.83
2022-08-24T06:31:27.641Z,4.57
2022-08-24T06:33:29.673Z,3.78
2022-08-24T06:35:31.802Z,3.30
2022-08-24T06:37:33.587Z,3.85
2022-08-24T06:39:36.001Z,4.10
2022-08-24T06:41:39.113Z,4.30
2022-08-24T06:43:41.057Z,3.85
2022-08-24T06:45:45.020Z,3.70
2022-08-24T06:47:46.903Z,3.97
2022-08-24T06:49:48.973Z,3.75
2022-08-24T06:51:51.422Z,3.90
2022-08-24T06:53:56.205Z,3.13
2022-08-24T06:55:59.212Z,3.40
2022-08-24T06:58:02.637Z,3.53
2022-08-24T07:00:05.867Z,3.92
2022-08-24T07:02:08.594Z,3.65
2022-08-24T07:06:14.158Z,3.65
2022-08-24T07:08:15.943Z,2.97
2022-08-24T07:10:17.735Z,3.17
2022-08-24T07:12:24.924Z,2.88
2022-08-24T07:14:26.826Z,3.00
2022-08-24T07:16:28.865Z,2.80
2022-08-24T07:18:30.681Z,2.92
2022-08-24T07:20:32.531Z,2.97
2022-08-24T07:22:34.341Z,2.83
2022-08-24T07:24:36.258Z,2.80
2022-08-24T07:26:39.235Z,3.03
2022-08-24T07:28:41.117Z,3.20
2022-08-24T07:30:43.636Z,3.58
2022-08-24T07:32:45.463Z,3.10
2022-08-24T07:34:47.445Z,2.60
2022-08-24T07:36:50.689Z,3.10
2022-08-24T07:38:53.017Z,3.08
2022-08-24T07:41:20.343Z,2.72
2022-08-24T07:43:17.571Z,3.30
2022-08-24T07:45:20.655Z,3.10
2022-08-24T07:47:37.455Z,2.75
2022-08-24T07:49:41.578Z,3.42
2022-08-24T07:53:53.961Z,3.20
2022-08-24T07:55:57.150Z,3.05
2022-08-24T07:57:59.544Z,2.35
2022-08-24T08:00:06.857Z,2.60
2022-08-24T08:02:08.911Z,2.88
2022-08-24T08:04:10.846Z,2.83
2022-08-24T08:06:16.169Z,2.60
2022-08-24T08:08:20.202Z,2.83
2022-08-24T08:10:23.428Z,2.65
2022-08-24T08:12:25.780Z,2.55
2022-08-24T08:14:27.831Z,2.53
2022-08-24T08:16:29.749Z,2.53
2022-08-24T08:18:32.048Z,2.40
2022-08-24T08:20:34.663Z,2.50
2022-08-24T08:22:55.087Z,2.67
2022-08-24T08:24:56.881Z,2.42
2022-08-24T08:26:59.367Z,2.97
2022-08-24T08:29:01.936Z,3.00
2022-08-24T08:31:05.763Z,2.35
2022-08-24T08:33:08.423Z,2.58
2022-08-24T08:35:10.840Z,2.90
2022-08-24T08:37:13.784Z,2.85
2022-08-24T08:39:18.161Z,2.35
2022-08-24T08:42:10.234Z,2.20
2022-08-24T08:44:41.823Z,2.75
2022-08-24T08:47:08.319Z,2.60
2022-08-24T08:49:47.731Z,2.63
2022-08-24T08:52:24.529Z,2.90
2022-08-24T08:54:45.904Z,2.88
2022-08-24T08:57:05.784Z,2.45
2022-08-24T08:59:45.580Z,2.80
2022-08-24T09:02:22.328Z,3.28
2022-08-24T09:04:56.714Z,2.65
2022-08-24T09:07:15.761Z,2.75
2022-08-24T09:09:37.779Z,2.67
2022-08-24T09:12:05.693Z,2.70
2022-08-24T09:14:10.031Z,2.80
2022-08-24T09:16:33.364Z,2.50
2022-08-24T09:21:04.079Z,3.00
2022-08-24T09:23:26.185Z,2.72
2022-08-24T09:25:55.208Z,2.50
2022-08-24T09:28:28.458Z,2.75
2022-08-24T09:33:00.878Z,2.45
2022-08-24T09:35:06.310Z,2.95
2022-08-24T09:37:30.851Z,2.63
2022-08-24T09:40:05.845Z,2.67
2022-08-24T09:42:16.942Z,2.90
2022-08-24T09:44:41.774Z,2.50
2022-08-24T09:47:04.834Z,2.80
2022-08-24T09:49:37.339Z,2.40
2022-08-24T09:52:00.323Z,3.00
2022-08-24T09:54:24.128Z,2.40
2022-08-24T09:56:37.877Z,2.58
2022-08-24T09:59:03.830Z,2.97
2022-08-24T10:01:30.392Z,2.22
2022-08-24T10:03:48.974Z,2.35
2022-08-24T10:05:59.863Z,2.20
2022-08-24T10:08:29.026Z,2.30
2022-08-24T10:10:53.523Z,2.78
2022-08-24T10:13:19.271Z,2.90
2022-08-24T10:15:28.383Z,2.67
2022-08-24T10:17:54.577Z,2.30
2022-08-24T10:20:05.970Z,2.50
2022-08-24T10:22:34.971Z,2.00
2022-08-24T10:24:39.840Z,2.17
2022-08-24T10:26:53.760Z,2.22
2022-08-24T10:29:05.815Z,2.22
2022-08-24T10:31:13.123Z,2.30
2022-08-24T10:33:20.652Z,2.08
2022-08-24T10:35:33.910Z,2.05
2022-08-24T10:38:22.411Z,2.35
2022-08-24T10:40:40.175Z,2.50
2022-08-24T10:43:09.329Z,2.03
2022-08-24T10:45:14.128Z,2.00
2022-08-24T10:47:29.218Z,2.20
2022-08-24T10:49:37.094Z,2.40
2022-08-24T10:52:09.067Z,2.55
2022-08-24T10:54:12.955Z,2.20
2022-08-24T10:56:21.577Z,2.25
2022-08-24T10:58:49.485Z,2.10
2022-08-24T11:00:51.758Z,2.38
2022-08-24T11:05:28.011Z,2.13
2022-08-24T11:07:29.854Z,2.50
2022-08-24T11:09:48.913Z,2.00
2022-08-24T11:11:50.795Z,2.20
2022-08-24T11:14:00.326Z,2.03
2022-08-24T11:16:04.215Z,2.28
2022-08-24T11:18:06.444Z,2.10
2022-08-24T11:20:27.863Z,2.38
2022-08-24T11:23:02.292Z,2.08
2022-08-24T11:25:28.273Z,2.00
2022-08-24T11:27:40.918Z,1.90
2022-08-24T11:29:52.023Z,2.10
2022-08-24T11:31:53.959Z,2.10
2022-08-24T11:34:24.347Z,2.10
2022-08-24T11:36:29.119Z,2.50
2022-08-24T11:38:34.972Z,2.22
2022-08-24T11:40:41.949Z,2.60
2022-08-24T11:42:46.530Z,2.67
2022-08-24T11:45:14.212Z,2.50
2022-08-24T11:47:39.811Z,2.20
2022-08-24T11:49:48.123Z,2.33
2022-08-24T11:51:59.348Z,2.33
2022-08-24T11:54:48.807Z,2.22
2022-08-24T11:57:31.267Z,2.40
2022-08-24T11:59:50.675Z,3.00
2022-08-24T12:02:04.242Z,2.47
2022-08-24T12:04:39.377Z,2.80
2022-08-24T12:06:55.856Z,2.25
2022-08-24T12:09:43.122Z,2.75
2022-08-24T12:12:17.069Z,2.70
2022-08-24T12:14:29.664Z,2.20
2022-08-24T12:16:47.816Z,2.40
2022-08-24T12:19:02.324Z,2.45
2022-08-24T12:21:04.743Z,2.45
2022-08-24T12:23:34.828Z,2.60
2022-08-24T12:25:55.363Z,2.13
2022-08-24T12:27:58.092Z,2.13
2022-08-24T12:30:05.529Z,2.25
2022-08-24T12:32:21.792Z,2.55
2022-08-24T12:34:46.001Z,2.35
2022-08-24T12:37:16.369Z,2.47
2022-08-24T12:39:28.651Z,2.45
2022-08-24T12:41:35.370Z,2.47
2022-08-24T12:43:43.841Z,2.28
2022-08-24T12:45:46.263Z,3.55
2022-08-24T12:48:00.501Z,2.55
2022-08-24T12:50:23.239Z,2.55
2022-08-24T12:53:00.589Z,2.60
2022-08-24T12:55:19.150Z,2.35
2022-08-24T12:57:53.106Z,2.65
2022-08-24T13:00:02.507Z,2.10
2022-08-24T13:02:25.078Z,2.10
2022-08-24T13:04:51.181Z,2.20
2022-08-24T13:07:01.988Z,2.03
2022-08-24T13:09:29.622Z,2.33
2022-08-24T13:11:35.164Z,2.40
2022-08-24T13:14:18.384Z,2.30
2022-08-24T13:16:49.603Z,2.17
2022-08-24T13:19:11.484Z,1.98
2022-08-24T13:21:35.055Z,2.65
2022-08-24T13:23:37.039Z,2.00
2022-08-24T13:25:47.986Z,1.90
2022-08-24T13:28:04.511Z,2.30
2022-08-24T13:30:18.290Z,2.53
2022-08-24T13:32:39.133Z,2.47
2022-08-24T13:34:47.123Z,2.38
2022-08-24T13:37:11.156Z,2.17
2022-08-24T13:39:21.735Z,2.42
2022-08-24T13:41:27.168Z,2.03
2022-08-24T13:43:47.126Z,2.35
2022-08-24T13:45:59.865Z,2.20
2022-08-24T13:48:07.553Z,2.20
2022-08-24T13:50:45.802Z,1.92
2022-08-24T13:53:11.791Z,2.00
2022-08-24T13:55:35.081Z,2.13
2022-08-24T13:57:39.539Z,2.22
2022-08-24T13:59:48.085Z,1.90
2022-08-24T14:02:11.670Z,2.00
2022-08-24T14:04:25.339Z,1.70
2022-08-24T14:06:55.475Z,1.77
2022-08-24T14:09:11.495Z,1.92
2022-08-24T14:11:34.300Z,1.88
2022-08-24T14:14:05.990Z,1.88
2022-08-24T14:17:19.441Z,1.52
2022-08-24T14:19:36.640Z,1.60
2022-08-24T14:21:47.997Z,1.60
2022-08-24T14:23:56.217Z,1.60
2022-08-24T14:26:36.750Z,1.70
2022-08-24T14:28:43.707Z,1.70
2022-08-24T14:30:46.892Z,1.95
2022-08-24T14:33:00.973Z,1.67
2022-08-24T14:35:36.335Z,2.03
2022-08-24T14:38:11.551Z,1.73
2022-08-24T14:40:35.135Z,1.70
2022-08-24T14:43:07.899Z,1.77
2022-08-24T14:45:19.629Z,1.70
2022-08-24T14:47:40.510Z,1.50
2022-08-24T14:49:46.727Z,1.85
2022-08-24T14:52:04.239Z,1.90
2022-08-24T14:54:39.900Z,1.65
2022-08-24T14:57:22.508Z,1.60
2022-08-24T14:59:50.860Z,1.60
2022-08-24T15:02:45.212Z,1.52
2022-08-24T15:04:52.710Z,1.60
2022-08-24T15:07:22.949Z,2.10
2022-08-24T15:09:38.587Z,1.83
2022-08-24T15:11:41.648Z,1.70
2022-08-24T15:13:48.236Z,1.77
2022-08-24T15:15:53.193Z,1.58
2022-08-24T15:18:13.469Z,1.60
2022-08-24T15:20:46.615Z,1.60
2022-08-24T15:23:11.668Z,1.52
2022-08-24T15:25:34.837Z,1.80
2022-08-24T15:27:50.806Z,1.27
2022-08-24T15:29:56.650Z,1.48
2022-08-24T15:32:01.562Z,1.60
2022-08-24T15:34:04.646Z,1.70
2022-08-24T15:36:11.067Z,1.48
2022-08-24T15:38:21.262Z,1.48
2022-08-24T15:40:29.484Z,1.40
2022-08-24T15:42:35.641Z,1.92
2022-08-24T15:44:38.561Z,1.60
2022-08-24T15:46:49.265Z,1.65
2022-08-24T15:48:53.109Z,1.75
2022-08-24T15:50:55.955Z,1.77
2022-08-24T15:53:28.158Z,1.42
2022-08-24T15:55:31.913Z,1.52
2022-08-24T15:57:44.858Z,1.60
2022-08-24T15:59:50.683Z,1.40
2022-08-24T16:02:26.525Z,1.50
2022-08-24T16:04:47.891Z,1.60
2022-08-24T16:06:49.802Z,1.50
2022-08-24T16:09:24.144Z,1.80
2022-08-24T16:11:39.057Z,1.42
2022-08-24T16:13:43.063Z,1.65
2022-08-24T16:16:15.220Z,1.83
2022-08-24T16:18:20.247Z,1.30
2022-08-24T16:20:25.086Z,1.40
2022-08-24T16:22:36.588Z,1.50
2022-08-24T16:24:41.122Z,1.20
2022-08-24T16:26:45.723Z,1.42
2022-08-24T16:28:48.364Z,1.60
2022-08-24T16:30:58.117Z,1.35
2022-08-24T16:33:03.147Z,1.27
2022-08-24T16:35:07.606Z,1.33
2022-08-24T16:37:09.752Z,1.35
2022-08-24T16:39:12.187Z,1.83
2022-08-24T16:41:18.469Z,1.45
2022-08-24T16:43:20.268Z,1.58
2022-08-24T16:45:23.071Z,1.65
2022-08-24T16:47:26.806Z,1.17
2022-08-24T16:49:28.610Z,1.23
2022-08-24T16:51:30.375Z,1.35
2022-08-24T16:53:32.266Z,1.52
2022-08-24T16:55:34.196Z,1.40
2022-08-24T16:57:37.511Z,1.50
2022-08-24T16:59:41.756Z,1.48
2022-08-24T17:01:43.607Z,1.30
2022-08-24T17:03:45.721Z,1.50
2022-08-24T17:05:47.559Z,1.35
2022-08-24T17:07:50.899Z,1.63
2022-08-24T17:09:53.004Z,1.58
2022-08-24T17:11:54.806Z,1.85
2022-08-24T17:13:56.671Z,1.60
2022-08-24T17:15:59.762Z,1.67
2022-08-24T17:18:07.449Z,1.63
2022-08-24T17:20:11.169Z,1.25
2022-08-24T17:22:16.381Z,1.15
2022-08-24T17:24:20.809Z,1.42
2022-08-24T17:26:22.620Z,1.40
2022-08-24T17:28:24.625Z,1.48
2022-08-24T17:30:26.554Z,1.48
2022-08-24T17:32:32.332Z,1.50
2022-08-24T17:34:34.146Z,1.52
2022-08-24T17:36:36.514Z,1.70
2022-08-24T17:38:45.981Z,1.90
2022-08-24T17:40:48.948Z,1.42
2022-08-24T17:42:51.814Z,1.63
2022-08-24T17:44:54.876Z,1.30
2022-08-24T17:47:00.534Z,1.50
2022-08-24T17:49:02.957Z,1.65
2022-08-24T17:51:04.833Z,1.73
2022-08-24T17:53:06.939Z,1.52
2022-08-24T17:55:12.070Z,1.40
2022-08-24T17:57:14.911Z,1.30
2022-08-24T17:59:25.697Z,1.52
2022-08-24T18:01:28.418Z,1.63
2022-08-24T18:03:30.329Z,1.80
2022-08-24T18:05:33.839Z,1.58
2022-08-24T18:07:52.643Z,1.65
2022-08-24T18:10:00.275Z,1.67
2022-08-24T18:12:03.339Z,1.90
2022-08-24T18:14:05.232Z,1.67
2022-08-24T18:16:12.953Z,1.60
2022-08-24T18:18:14.793Z,2.05
2022-08-24T18:20:27.631Z,1.60
2022-08-24T18:22:29.801Z,1.63
2022-08-24T18:24:32.572Z,1.77
2022-08-24T18:26:34.658Z,1.80
2022-08-24T18:28:37.294Z,2.00
2022-08-24T18:30:41.426Z,1.83
2022-08-24T18:32:43.221Z,1.70
2022-08-24T18:34:45.125Z,1.73
2022-08-24T18:36:47.461Z,1.65
2022-08-24T18:38:49.307Z,1.88
2022-08-24T18:40:52.881Z,2.00
2022-08-24T18:42:57.037Z,2.00
2022-08-24T18:45:02.089Z,1.88
2022-08-24T18:47:03.942Z,2.13
2022-08-24T18:49:06.992Z,1.70
2022-08-24T18:51:10.372Z,1.92
2022-08-24T18:53:13.453Z,2.13
2022-08-24T18:55:16.852Z,1.90
2022-08-24T18:57:19.141Z,1.83
2022-08-24T18:59:22.112Z,2.25
2022-08-24T19:01:25.352Z,1.85
2022-08-24T19:03:27.257Z,1.95
2022-08-24T19:05:29.138Z,2.28
2022-08-24T19:07:34.187Z,2.07
2022-08-24T19:09:36.038Z,2.00
2022-08-24T19:11:38.325Z,2.20
2022-08-24T19:13:40.703Z,2.38
2022-08-24T19:15:46.583Z,1.95
2022-08-24T19:17:48.576Z,2.10
2022-08-24T19:19:50.376Z,2.03
2022-08-24T19:21:53.061Z,2.25
2022-08-24T19:28:00.334Z,2.45
2022-08-24T19:30:02.169Z,2.50
2022-08-24T19:32:04.519Z,2.60
2022-08-24T19:34:13.195Z,2.10
2022-08-24T19:36:15.364Z,2.08
2022-08-24T19:38:17.981Z,2.40
2022-08-24T19:40:21.862Z,2.92
2022-08-24T19:42:24.862Z,2.50
2022-08-24T19:44:51.868Z,2.53
2022-08-24T19:46:53.965Z,2.30
2022-08-24T19:48:56.172Z,2.70
2022-08-24T19:51:00.254Z,2.53
2022-08-24T19:53:02.377Z,2.72
2022-08-24T19:55:06.964Z,2.40
2022-08-24T19:57:36.273Z,2.40
2022-08-24T19:59:41.155Z,2.53
2022-08-24T20:01:43.008Z,2.40
2022-08-24T20:03:44.846Z,2.50
2022-08-24T20:05:46.801Z,2.53
2022-08-24T20:07:49.308Z,3.33
2022-08-24T20:09:51.094Z,2.50
2022-08-24T20:11:53.186Z,2.30
2022-08-24T20:13:55.060Z,2.60
2022-08-24T20:15:57.831Z,2.67
2022-08-24T20:17:59.912Z,2.90
2022-08-24T20:20:02.407Z,2.95
2022-08-24T20:22:13.135Z,2.60
2022-08-24T20:24:15.549Z,2.70
2022-08-24T20:26:17.451Z,2.67
2022-08-24T20:28:29.321Z,2.60
2022-08-24T20:30:32.059Z,2.67
2022-08-24T20:32:34.245Z,2.57
2022-08-24T20:34:36.098Z,2.97
2022-08-24T20:36:42.345Z,2.50
2022-08-24T20:38:44.149Z,2.60
2022-08-24T20:40:46.563Z,2.42
2022-08-24T20:42:48.491Z,2.70
2022-08-24T20:44:50.407Z,2.45
2022-08-24T20:46:52.353Z,2.80
2022-08-24T20:48:56.157Z,3.08
2022-08-24T20:50:59.064Z,3.15
2022-08-24T20:53:00.856Z,2.50
2022-08-24T20:55:05.133Z,2.90
2022-08-24T20:57:09.615Z,2.92
2022-08-24T20:59:12.849Z,2.63
2022-08-24T21:01:14.721Z,3.25
2022-08-24T21:03:18.745Z,2.70
2022-08-24T21:05:21.194Z,2.70
2022-08-24T21:07:23.094Z,3.08
2022-08-24T21:09:25.007Z,3.33
2022-08-24T21:11:26.987Z,2.67
2022-08-24T21:13:28.792Z,3.15
2022-08-24T21:15:30.870Z,2.92
2022-08-24T21:17:32.671Z,2.88
2022-08-24T21:19:34.513Z,3.58
2022-08-24T21:21:39.640Z,3.33
2022-08-24T21:23:44.425Z,3.00
2022-08-24T21:25:46.736Z,2.70
2022-08-24T21:27:50.836Z,3.17
2022-08-24T21:29:52.643Z,2.95
2022-08-24T21:32:12.825Z,3.10
2022-08-24T21:34:50.095Z,2.90
2022-08-24T21:36:52.585Z,2.78
2022-08-24T21:38:55.962Z,3.17
2022-08-24T21:40:58.752Z,2.88
2022-08-24T21:45:02.866Z,3.20
2022-08-24T21:47:05.969Z,3.30
2022-08-24T21:49:08.903Z,3.30
2022-08-24T21:51:13.914Z,3.20
2022-08-24T21:53:16.667Z,3.20
2022-08-24T21:57:20.226Z,3.30
2022-08-24T21:59:22.311Z,3.38
2022-08-24T22:01:24.409Z,3.78
2022-08-24T22:03:27.314Z,3.85
2022-08-24T22:05:33.574Z,3.90
2022-08-24T22:07:35.531Z,3.33
2022-08-24T22:09:37.310Z,3.50
2022-08-24T22:11:41.885Z,3.30
2022-08-24T22:13:44.269Z,3.65
2022-08-24T22:15:46.151Z,3.78
2022-08-24T22:17:51.886Z,3.83
2022-08-24T22:19:54.599Z,4.18
2022-08-24T22:21:56.388Z,3.80
2022-08-24T22:23:59.357Z,3.67
2022-08-24T22:26:01.147Z,3.63
2022-08-24T22:28:03.285Z,3.47
2022-08-24T22:30:05.964Z,3.53
2022-08-24T22:34:16.617Z,3.65
2022-08-24T22:36:23.314Z,3.83
2022-08-24T22:38:25.058Z,3.80
2022-08-24T22:40:27.237Z,3.45
2022-08-24T22:42:29.277Z,4.25
2022-08-24T22:44:31.328Z,3.58
2022-08-24T22:46:35.027Z,4.22
2022-08-24T22:48:36.873Z,3.92
2022-08-24T22:50:43.155Z,3.92
2022-08-24T22:52:45.244Z,4.13
2022-08-24T22:54:47.150Z,4.35
2022-08-24T22:56:51.802Z,3.90
2022-08-24T22:58:55.886Z,3.88
2022-08-24T23:00:57.638Z,4.43
2022-08-24T23:02:59.440Z,4.78
2022-08-24T23:05:01.743Z,4.60
2022-08-24T23:07:05.194Z,4.13
2022-08-24T23:09:08.087Z,4.55
2022-08-24T23:11:10.044Z,4.70
2022-08-24T23:13:11.803Z,4.60
2022-08-24T23:15:13.619Z,4.78
2022-08-24T23:17:15.413Z,5.32
2022-08-24T23:19:39.588Z,5.00
2022-08-24T23:21:41.934Z,4.70
2022-08-24T23:23:44.103Z,5.82
2022-08-24T23:25:47.225Z,5.32
2022-08-24T23:27:50.199Z,5.97
2022-08-24T23:29:52.842Z,5.25
2022-08-24T23:31:54.693Z,5.53
2022-08-24T23:33:58.390Z,5.57
2022-08-24T23:36:09.919Z,5.75
2022-08-24T23:38:11.677Z,5.50
2022-08-24T23:40:13.521Z,5.20
2022-08-24T23:42:16.052Z,5.03
2022-08-24T23:44:21.707Z,5.57
2022-08-24T23:46:23.832Z,5.18
2022-08-24T23:48:25.680Z,5.60
2022-08-24T23:50:27.741Z,5.40
2022-08-24T23:52:30.727Z,5.88
2022-08-24T23:54:32.564Z,5.35
2022-08-24T23:56:37.563Z,5.65
2022-08-24T23:58:41.192Z,5.72
